Terminal Aerodrome Forecast
Issued by NWS

Home | Current Version | Previous Version | Text Only | Print | Product List | Glossary On
Versions: 1 2 3 4 5 6 7 8 9 10 11 12 13 14 15 16 17 18 19 20 21 22 23
480
FTUS41 KPHI 202344 CCA
TAFPNE
TAF COR
KPNE 202344Z 2100/2206 21011KT P6SM SCT150
     FM210400 20006KT 3SM -DZ BR SCT070
     FM210700 21005KT 1/2SM -DZ FG BKN004
     FM211400 22008KT P6SM BKN015
     FM211700 22012KT P6SM BKN035
     FM212300 22008KT P6SM BKN035=

USA.gov is the U.S. government's official web portal to all federal, state and local government web resources and services.